sensor_id;sensor_type;location;lat;lon;timestamp;P1;durP1;ratioP1;P2;durP2;ratioP2
48199;SDS011;33990;44.602;10.976;2023-08-07T00:02:12;2.30;;;0.80;;
48199;SDS011;33990;44.602;10.976;2023-08-07T00:04:39;2.00;;;0.82;;
48199;SDS011;33990;44.602;10.976;2023-08-07T00:07:07;2.50;;;0.73;;
48199;SDS011;33990;44.602;10.976;2023-08-07T00:09:34;1.55;;;0.70;;
48199;SDS011;33990;44.602;10.976;2023-08-07T00:12:01;2.17;;;0.60;;
48199;SDS011;33990;44.602;10.976;2023-08-07T00:14:30;2.65;;;1.10;;
48199;SDS011;33990;44.602;10.976;2023-08-07T00:16:57;2.05;;;0.70;;
48199;SDS011;33990;44.602;10.976;2023-08-07T00:19:25;1.60;;;0.82;;
48199;SDS011;33990;44.602;10.976;2023-08-07T00:21:52;1.40;;;0.52;;
48199;SDS011;33990;44.602;10.976;2023-08-07T00:24:20;1.88;;;0.70;;
48199;SDS011;33990;44.602;10.976;2023-08-07T00:26:47;3.25;;;0.75;;
48199;SDS011;33990;44.602;10.976;2023-08-07T00:29:15;1.73;;;0.77;;
48199;SDS011;33990;44.602;10.976;2023-08-07T00:31:42;1.98;;;0.70;;
48199;SDS011;33990;44.602;10.976;2023-08-07T00:34:09;2.15;;;0.80;;
48199;SDS011;33990;44.602;10.976;2023-08-07T00:36:37;1.10;;;0.55;;
48199;SDS011;33990;44.602;10.976;2023-08-07T00:39:05;2.05;;;0.80;;
48199;SDS011;33990;44.602;10.976;2023-08-07T00:41:32;2.00;;;0.68;;
48199;SDS011;33990;44.602;10.976;2023-08-07T00:43:59;2.58;;;0.77;;
48199;SDS011;33990;44.602;10.976;2023-08-07T00:46:27;2.17;;;0.70;;
48199;SDS011;33990;44.602;10.976;2023-08-07T00:48:56;2.45;;;0.90;;
48199;SDS011;33990;44.602;10.976;2023-08-07T00:51:23;1.98;;;0.80;;
48199;SDS011;33990;44.602;10.976;2023-08-07T00:53:51;1.55;;;0.65;;
48199;SDS011;33990;44.602;10.976;2023-08-07T00:56:19;2.53;;;0.93;;
48199;SDS011;33990;44.602;10.976;2023-08-07T00:58:46;1.10;;;0.63;;
48199;SDS011;33990;44.602;10.976;2023-08-07T01:01:14;1.23;;;0.40;;
48199;SDS011;33990;44.602;10.976;2023-08-07T01:03:41;1.63;;;0.70;;
48199;SDS011;33990;44.602;10.976;2023-08-07T01:06:09;1.85;;;0.70;;
48199;SDS011;33990;44.602;10.976;2023-08-07T01:08:36;1.85;;;0.60;;
48199;SDS011;33990;44.602;10.976;2023-08-07T01:13:38;1.90;;;0.80;;
48199;SDS011;33990;44.602;10.976;2023-08-07T01:16:20;1.92;;;0.80;;
48199;SDS011;33990;44.602;10.976;2023-08-07T01:18:53;1.70;;;0.70;;
48199;SDS011;33990;44.602;10.976;2023-08-07T01:21:21;2.15;;;0.90;;
48199;SDS011;33990;44.602;10.976;2023-08-07T01:23:48;1.83;;;0.85;;
48199;SDS011;33990;44.602;10.976;2023-08-07T01:26:18;2.17;;;0.82;;
48199;SDS011;33990;44.602;10.976;2023-08-07T01:28:50;1.23;;;0.63;;
48199;SDS011;33990;44.602;10.976;2023-08-07T01:31:22;2.03;;;0.73;;
48199;SDS011;33990;44.602;10.976;2023-08-07T01:33:57;2.17;;;0.63;;
48199;SDS011;33990;44.602;10.976;2023-08-07T01:36:28;2.03;;;0.82;;
48199;SDS011;33990;44.602;10.976;2023-08-07T01:38:57;1.38;;;0.50;;
48199;SDS011;33990;44.602;10.976;2023-08-07T01:41:26;2.40;;;0.90;;
48199;SDS011;33990;44.602;10.976;2023-08-07T01:43:54;1.45;;;0.68;;
48199;SDS011;33990;44.602;10.976;2023-08-07T01:46:21;1.75;;;0.68;;
48199;SDS011;33990;44.602;10.976;2023-08-07T01:48:49;1.73;;;0.63;;
48199;SDS011;33990;44.602;10.976;2023-08-07T01:51:16;2.67;;;1.00;;
48199;SDS011;33990;44.602;10.976;2023-08-07T01:53:44;1.92;;;0.93;;
48199;SDS011;33990;44.602;10.976;2023-08-07T01:56:12;1.95;;;0.70;;
48199;SDS011;33990;44.602;10.976;2023-08-07T01:58:39;2.08;;;0.70;;
48199;SDS011;33990;44.602;10.976;2023-08-07T02:01:06;2.53;;;0.88;;
48199;SDS011;33990;44.602;10.976;2023-08-07T02:03:34;1.65;;;0.65;;
48199;SDS011;33990;44.602;10.976;2023-08-07T02:06:01;2.17;;;0.85;;
48199;SDS011;33990;44.602;10.976;2023-08-07T02:08:29;1.85;;;0.52;;
48199;SDS011;33990;44.602;10.976;2023-08-07T02:10:57;1.98;;;0.77;;
48199;SDS011;33990;44.602;10.976;2023-08-07T02:13:24;1.98;;;0.77;;
48199;SDS011;33990;44.602;10.976;2023-08-07T02:15:51;2.25;;;0.90;;
48199;SDS011;33990;44.602;10.976;2023-08-07T02:18:19;1.75;;;0.70;;
48199;SDS011;33990;44.602;10.976;2023-08-07T02:20:46;2.00;;;0.90;;
48199;SDS011;33990;44.602;10.976;2023-08-07T02:23:13;1.92;;;0.63;;
48199;SDS011;33990;44.602;10.976;2023-08-07T02:25:41;1.85;;;0.70;;
48199;SDS011;33990;44.602;10.976;2023-08-07T02:28:08;2.88;;;0.80;;
48199;SDS011;33990;44.602;10.976;2023-08-07T02:30:35;3.75;;;1.00;;
48199;SDS011;33990;44.602;10.976;2023-08-07T02:33:03;1.55;;;0.80;;
48199;SDS011;33990;44.602;10.976;2023-08-07T02:35:30;2.70;;;0.75;;
48199;SDS011;33990;44.602;10.976;2023-08-07T02:37:58;2.35;;;0.70;;
48199;SDS011;33990;44.602;10.976;2023-08-07T02:40:25;2.50;;;0.93;;
48199;SDS011;33990;44.602;10.976;2023-08-07T02:42:53;1.30;;;0.50;;
48199;SDS011;33990;44.602;10.976;2023-08-07T02:45:20;1.85;;;0.82;;
48199;SDS011;33990;44.602;10.976;2023-08-07T02:47:47;1.75;;;0.70;;
48199;SDS011;33990;44.602;10.976;2023-08-07T02:50:15;1.63;;;0.60;;
48199;SDS011;33990;44.602;10.976;2023-08-07T02:52:42;3.05;;;0.80;;
48199;SDS011;33990;44.602;10.976;2023-08-07T02:55:12;1.40;;;0.50;;
48199;SDS011;33990;44.602;10.976;2023-08-07T02:57:39;1.95;;;0.60;;
48199;SDS011;33990;44.602;10.976;2023-08-07T03:00:07;2.30;;;0.68;;
48199;SDS011;33990;44.602;10.976;2023-08-07T03:02:35;1.90;;;0.60;;
48199;SDS011;33990;44.602;10.976;2023-08-07T03:05:02;2.15;;;0.73;;
48199;SDS011;33990;44.602;10.976;2023-08-07T03:07:30;1.70;;;0.68;;
48199;SDS011;33990;44.602;10.976;2023-08-07T03:09:57;2.20;;;0.70;;
48199;SDS011;33990;44.602;10.976;2023-08-07T03:12:25;2.45;;;0.60;;
48199;SDS011;33990;44.602;10.976;2023-08-07T03:14:52;1.60;;;0.57;;
48199;SDS011;33990;44.602;10.976;2023-08-07T03:17:19;1.90;;;0.60;;
48199;SDS011;33990;44.602;10.976;2023-08-07T03:19:47;1.92;;;0.68;;
48199;SDS011;33990;44.602;10.976;2023-08-07T03:22:16;2.38;;;0.77;;
48199;SDS011;33990;44.602;10.976;2023-08-07T03:24:52;2.00;;;0.70;;
48199;SDS011;33990;44.602;10.976;2023-08-07T03:27:20;1.88;;;0.70;;
48199;SDS011;33990;44.602;10.976;2023-08-07T03:29:47;2.33;;;0.70;;
48199;SDS011;33990;44.602;10.976;2023-08-07T03:32:15;1.98;;;0.90;;
48199;SDS011;33990;44.602;10.976;2023-08-07T03:34:42;1.90;;;0.80;;
48199;SDS011;33990;44.602;10.976;2023-08-07T03:37:11;1.27;;;0.50;;
48199;SDS011;33990;44.602;10.976;2023-08-07T03:39:38;4.88;;;0.60;;
48199;SDS011;33990;44.602;10.976;2023-08-07T03:42:06;2.42;;;0.82;;
48199;SDS011;33990;44.602;10.976;2023-08-07T03:44:33;2.30;;;0.85;;
48199;SDS011;33990;44.602;10.976;2023-08-07T03:47:01;2.15;;;0.80;;
48199;SDS011;33990;44.602;10.976;2023-08-07T03:49:29;2.40;;;1.00;;
48199;SDS011;33990;44.602;10.976;2023-08-07T03:51:57;1.70;;;0.80;;
48199;SDS011;33990;44.602;10.976;2023-08-07T03:54:26;2.35;;;0.80;;
48199;SDS011;33990;44.602;10.976;2023-08-07T03:56:53;2.03;;;0.70;;
48199;SDS011;33990;44.602;10.976;2023-08-07T03:59:21;1.00;;;0.47;;
48199;SDS011;33990;44.602;10.976;2023-08-07T04:01:49;1.15;;;0.60;;
48199;SDS011;33990;44.602;10.976;2023-08-07T04:04:16;4.65;;;1.10;;
48199;SDS011;33990;44.602;10.976;2023-08-07T04:06:44;2.67;;;0.85;;
48199;SDS011;33990;44.602;10.976;2023-08-07T04:09:13;2.45;;;0.75;;
48199;SDS011;33990;44.602;10.976;2023-08-07T04:11:41;3.13;;;1.00;;
48199;SDS011;33990;44.602;10.976;2023-08-07T04:14:08;1.75;;;0.85;;
48199;SDS011;33990;44.602;10.976;2023-08-07T04:16:37;1.77;;;0.80;;
48199;SDS011;33990;44.602;10.976;2023-08-07T04:19:04;2.30;;;0.82;;
48199;SDS011;33990;44.602;10.976;2023-08-07T04:21:33;1.30;;;0.40;;
48199;SDS011;33990;44.602;10.976;2023-08-07T04:24:01;1.75;;;0.60;;
48199;SDS011;33990;44.602;10.976;2023-08-07T04:26:34;1.23;;;0.60;;
48199;SDS011;33990;44.602;10.976;2023-08-07T04:29:02;1.55;;;0.52;;
48199;SDS011;33990;44.602;10.976;2023-08-07T04:31:29;1.48;;;0.70;;
48199;SDS011;33990;44.602;10.976;2023-08-07T04:34:00;2.60;;;0.90;;
48199;SDS011;33990;44.602;10.976;2023-08-07T04:36:27;2.75;;;0.82;;
48199;SDS011;33990;44.602;10.976;2023-08-07T04:38:55;1.25;;;0.55;;
48199;SDS011;33990;44.602;10.976;2023-08-07T04:41:24;1.55;;;0.60;;
48199;SDS011;33990;44.602;10.976;2023-08-07T04:43:51;2.15;;;0.60;;
48199;SDS011;33990;44.602;10.976;2023-08-07T04:46:18;2.33;;;0.60;;
48199;SDS011;33990;44.602;10.976;2023-08-07T04:48:46;1.77;;;0.60;;
48199;SDS011;33990;44.602;10.976;2023-08-07T04:51:14;1.83;;;0.65;;
48199;SDS011;33990;44.602;10.976;2023-08-07T04:53:42;2.47;;;0.90;;
48199;SDS011;33990;44.602;10.976;2023-08-07T04:56:09;2.22;;;0.80;;
48199;SDS011;33990;44.602;10.976;2023-08-07T04:58:37;2.10;;;0.70;;
48199;SDS011;33990;44.602;10.976;2023-08-07T05:01:04;1.98;;;0.93;;
48199;SDS011;33990;44.602;10.976;2023-08-07T05:03:32;2.03;;;0.65;;
48199;SDS011;33990;44.602;10.976;2023-08-07T05:06:01;2.13;;;0.73;;
48199;SDS011;33990;44.602;10.976;2023-08-07T05:08:29;2.38;;;0.88;;
48199;SDS011;33990;44.602;10.976;2023-08-07T05:10:56;2.05;;;0.77;;
48199;SDS011;33990;44.602;10.976;2023-08-07T05:13:23;2.38;;;1.00;;
48199;SDS011;33990;44.602;10.976;2023-08-07T05:15:51;1.42;;;0.68;;
48199;SDS011;33990;44.602;10.976;2023-08-07T05:18:18;1.60;;;0.70;;
48199;SDS011;33990;44.602;10.976;2023-08-07T05:20:46;2.10;;;0.70;;
48199;SDS011;33990;44.602;10.976;2023-08-07T05:23:13;1.60;;;0.70;;
48199;SDS011;33990;44.602;10.976;2023-08-07T05:25:41;1.30;;;0.60;;
48199;SDS011;33990;44.602;10.976;2023-08-07T05:28:08;1.35;;;0.60;;
48199;SDS011;33990;44.602;10.976;2023-08-07T05:30:35;1.60;;;0.70;;
48199;SDS011;33990;44.602;10.976;2023-08-07T05:33:03;1.35;;;0.60;;
48199;SDS011;33990;44.602;10.976;2023-08-07T05:35:30;1.83;;;0.90;;
48199;SDS011;33990;44.602;10.976;2023-08-07T05:37:58;2.08;;;0.80;;
48199;SDS011;33990;44.602;10.976;2023-08-07T05:40:25;2.15;;;0.82;;
48199;SDS011;33990;44.602;10.976;2023-08-07T05:42:52;2.35;;;0.60;;
48199;SDS011;33990;44.602;10.976;2023-08-07T05:45:20;2.22;;;0.60;;
48199;SDS011;33990;44.602;10.976;2023-08-07T05:47:47;1.83;;;0.75;;
48199;SDS011;33990;44.602;10.976;2023-08-07T05:50:14;0.88;;;0.40;;
48199;SDS011;33990;44.602;10.976;2023-08-07T05:52:42;1.98;;;0.88;;
48199;SDS011;33990;44.602;10.976;2023-08-07T05:55:09;1.83;;;0.65;;
48199;SDS011;33990;44.602;10.976;2023-08-07T05:57:37;1.38;;;0.57;;
48199;SDS011;33990;44.602;10.976;2023-08-07T06:00:04;1.52;;;0.77;;
48199;SDS011;33990;44.602;10.976;2023-08-07T06:02:38;1.42;;;0.50;;
48199;SDS011;33990;44.602;10.976;2023-08-07T06:05:05;1.63;;;0.57;;
48199;SDS011;33990;44.602;10.976;2023-08-07T06:07:34;1.70;;;0.75;;
48199;SDS011;33990;44.602;10.976;2023-08-07T06:10:01;1.73;;;0.65;;
48199;SDS011;33990;44.602;10.976;2023-08-07T06:12:28;1.08;;;0.47;;
48199;SDS011;33990;44.602;10.976;2023-08-07T06:14:56;1.35;;;0.65;;
48199;SDS011;33990;44.602;10.976;2023-08-07T06:17:23;1.45;;;0.52;;
48199;SDS011;33990;44.602;10.976;2023-08-07T06:19:51;1.10;;;0.63;;
48199;SDS011;33990;44.602;10.976;2023-08-07T06:22:19;0.88;;;0.30;;
48199;SDS011;33990;44.602;10.976;2023-08-07T06:24:46;0.98;;;0.40;;
48199;SDS011;33990;44.602;10.976;2023-08-07T06:27:14;1.70;;;0.88;;
48199;SDS011;33990;44.602;10.976;2023-08-07T06:29:41;1.85;;;0.55;;
48199;SDS011;33990;44.602;10.976;2023-08-07T06:32:09;1.45;;;0.47;;
48199;SDS011;33990;44.602;10.976;2023-08-07T06:34:37;2.20;;;0.80;;
48199;SDS011;33990;44.602;10.976;2023-08-07T06:37:05;1.23;;;0.50;;
48199;SDS011;33990;44.602;10.976;2023-08-07T06:39:32;0.98;;;0.35;;
48199;SDS011;33990;44.602;10.976;2023-08-07T06:41:59;1.20;;;0.60;;
48199;SDS011;33990;44.602;10.976;2023-08-07T06:44:33;1.52;;;0.70;;
48199;SDS011;33990;44.602;10.976;2023-08-07T06:47:00;0.90;;;0.50;;
48199;SDS011;33990;44.602;10.976;2023-08-07T06:49:28;1.50;;;0.60;;
48199;SDS011;33990;44.602;10.976;2023-08-07T06:51:55;1.80;;;0.60;;
48199;SDS011;33990;44.602;10.976;2023-08-07T06:54:23;1.38;;;0.52;;
48199;SDS011;33990;44.602;10.976;2023-08-07T06:56:51;2.63;;;0.65;;
48199;SDS011;33990;44.602;10.976;2023-08-07T06:59:18;1.65;;;0.60;;
48199;SDS011;33990;44.602;10.976;2023-08-07T07:01:46;1.35;;;0.50;;
48199;SDS011;33990;44.602;10.976;2023-08-07T07:04:13;1.40;;;0.65;;
48199;SDS011;33990;44.602;10.976;2023-08-07T07:06:42;1.58;;;0.60;;
48199;SDS011;33990;44.602;10.976;2023-08-07T07:09:10;1.20;;;0.50;;
48199;SDS011;33990;44.602;10.976;2023-08-07T07:11:37;1.70;;;0.47;;
48199;SDS011;33990;44.602;10.976;2023-08-07T07:14:04;1.67;;;0.77;;
48199;SDS011;33990;44.602;10.976;2023-08-07T07:16:32;2.25;;;0.80;;
48199;SDS011;33990;44.602;10.976;2023-08-07T07:19:00;2.05;;;0.60;;
48199;SDS011;33990;44.602;10.976;2023-08-07T07:21:27;1.20;;;0.50;;
48199;SDS011;33990;44.602;10.976;2023-08-07T07:23:54;1.25;;;0.55;;
48199;SDS011;33990;44.602;10.976;2023-08-07T07:26:22;2.40;;;0.77;;
48199;SDS011;33990;44.602;10.976;2023-08-07T07:28:49;3.03;;;0.90;;
48199;SDS011;33990;44.602;10.976;2023-08-07T07:31:18;1.02;;;0.30;;
48199;SDS011;33990;44.602;10.976;2023-08-07T07:33:45;1.50;;;0.68;;
48199;SDS011;33990;44.602;10.976;2023-08-07T07:36:17;1.50;;;0.70;;
48199;SDS011;33990;44.602;10.976;2023-08-07T07:38:46;1.25;;;0.52;;
48199;SDS011;33990;44.602;10.976;2023-08-07T07:41:14;0.82;;;0.35;;
48199;SDS011;33990;44.602;10.976;2023-08-07T07:43:42;1.30;;;0.55;;
48199;SDS011;33990;44.602;10.976;2023-08-07T07:46:10;1.35;;;0.60;;
48199;SDS011;33990;44.602;10.976;2023-08-07T07:48:37;1.80;;;0.88;;
48199;SDS011;33990;44.602;10.976;2023-08-07T07:51:05;1.60;;;0.70;;
48199;SDS011;33990;44.602;10.976;2023-08-07T07:53:32;2.05;;;0.65;;
48199;SDS011;33990;44.602;10.976;2023-08-07T07:56:00;2.08;;;0.85;;
48199;SDS011;33990;44.602;10.976;2023-08-07T07:58:27;1.48;;;0.60;;
48199;SDS011;33990;44.602;10.976;2023-08-07T08:00:54;1.73;;;0.70;;
48199;SDS011;33990;44.602;10.976;2023-08-07T08:03:22;0.80;;;0.32;;
48199;SDS011;33990;44.602;10.976;2023-08-07T08:05:51;1.42;;;0.60;;
48199;SDS011;33990;44.602;10.976;2023-08-07T08:08:19;1.63;;;0.68;;
48199;SDS011;33990;44.602;10.976;2023-08-07T08:10:46;0.88;;;0.40;;
48199;SDS011;33990;44.602;10.976;2023-08-07T08:13:15;1.45;;;0.65;;
48199;SDS011;33990;44.602;10.976;2023-08-07T08:15:43;1.23;;;0.50;;
48199;SDS011;33990;44.602;10.976;2023-08-07T08:18:11;1.65;;;0.47;;
48199;SDS011;33990;44.602;10.976;2023-08-07T08:20:39;1.02;;;0.40;;
48199;SDS011;33990;44.602;10.976;2023-08-07T08:23:06;1.85;;;0.70;;
48199;SDS011;33990;44.602;10.976;2023-08-07T08:25:33;1.05;;;0.40;;
48199;SDS011;33990;44.602;10.976;2023-08-07T08:28:01;1.02;;;0.45;;
48199;SDS011;33990;44.602;10.976;2023-08-07T08:30:28;0.88;;;0.35;;
48199;SDS011;33990;44.602;10.976;2023-08-07T08:32:56;1.50;;;0.40;;
48199;SDS011;33990;44.602;10.976;2023-08-07T08:35:24;0.93;;;0.47;;
48199;SDS011;33990;44.602;10.976;2023-08-07T08:37:51;1.23;;;0.40;;
48199;SDS011;33990;44.602;10.976;2023-08-07T08:40:18;1.20;;;0.52;;
48199;SDS011;33990;44.602;10.976;2023-08-07T08:42:46;1.80;;;0.40;;
48199;SDS011;33990;44.602;10.976;2023-08-07T08:45:14;1.23;;;0.40;;
48199;SDS011;33990;44.602;10.976;2023-08-07T08:47:42;1.27;;;0.60;;
48199;SDS011;33990;44.602;10.976;2023-08-07T08:50:13;1.27;;;0.50;;
48199;SDS011;33990;44.602;10.976;2023-08-07T08:52:42;1.27;;;0.43;;
48199;SDS011;33990;44.602;10.976;2023-08-07T08:55:13;1.23;;;0.52;;
48199;SDS011;33990;44.602;10.976;2023-08-07T08:57:41;1.33;;;0.40;;
48199;SDS011;33990;44.602;10.976;2023-08-07T09:00:09;1.15;;;0.55;;
48199;SDS011;33990;44.602;10.976;2023-08-07T09:02:56;1.48;;;0.57;;
48199;SDS011;33990;44.602;10.976;2023-08-07T09:05:24;1.50;;;0.50;;
48199;SDS011;33990;44.602;10.976;2023-08-07T09:07:52;1.63;;;0.43;;
48199;SDS011;33990;44.602;10.976;2023-08-07T09:10:19;1.27;;;0.57;;
48199;SDS011;33990;44.602;10.976;2023-08-07T09:12:54;1.40;;;0.47;;
48199;SDS011;33990;44.602;10.976;2023-08-07T09:15:27;1.33;;;0.40;;
48199;SDS011;33990;44.602;10.976;2023-08-07T09:17:56;1.15;;;0.35;;
48199;SDS011;33990;44.602;10.976;2023-08-07T09:20:25;0.90;;;0.43;;
48199;SDS011;33990;44.602;10.976;2023-08-07T09:22:53;0.90;;;0.30;;
48199;SDS011;33990;44.602;10.976;2023-08-07T09:25:27;1.27;;;0.45;;
48199;SDS011;33990;44.602;10.976;2023-08-07T09:27:55;0.82;;;0.40;;
48199;SDS011;33990;44.602;10.976;2023-08-07T09:30:26;0.98;;;0.50;;
48199;SDS011;33990;44.602;10.976;2023-08-07T09:32:59;1.38;;;0.30;;
48199;SDS011;33990;44.602;10.976;2023-08-07T09:35:28;1.38;;;0.50;;
48199;SDS011;33990;44.602;10.976;2023-08-07T09:37:57;0.90;;;0.32;;
48199;SDS011;33990;44.602;10.976;2023-08-07T09:40:24;1.23;;;0.38;;
48199;SDS011;33990;44.602;10.976;2023-08-07T09:42:53;1.10;;;0.40;;
48199;SDS011;33990;44.602;10.976;2023-08-07T09:45:25;0.90;;;0.50;;
48199;SDS011;33990;44.602;10.976;2023-08-07T09:47:57;1.20;;;0.50;;
48199;SDS011;33990;44.602;10.976;2023-08-07T09:50:24;0.57;;;0.35;;
48199;SDS011;33990;44.602;10.976;2023-08-07T09:52:54;0.90;;;0.40;;
48199;SDS011;33990;44.602;10.976;2023-08-07T09:55:28;1.02;;;0.50;;
48199;SDS011;33990;44.602;10.976;2023-08-07T09:57:55;1.58;;;0.43;;
48199;SDS011;33990;44.602;10.976;2023-08-07T10:00:23;0.98;;;0.40;;
48199;SDS011;33990;44.602;10.976;2023-08-07T10:02:50;1.42;;;0.60;;
48199;SDS011;33990;44.602;10.976;2023-08-07T10:05:18;1.25;;;0.45;;
48199;SDS011;33990;44.602;10.976;2023-08-07T10:07:46;1.60;;;0.60;;
48199;SDS011;33990;44.602;10.976;2023-08-07T10:10:15;1.27;;;0.40;;
48199;SDS011;33990;44.602;10.976;2023-08-07T10:12:43;1.08;;;0.50;;
48199;SDS011;33990;44.602;10.976;2023-08-07T10:15:15;1.50;;;0.57;;
48199;SDS011;33990;44.602;10.976;2023-08-07T10:17:42;0.95;;;0.30;;
48199;SDS011;33990;44.602;10.976;2023-08-07T10:20:11;1.73;;;0.50;;
48199;SDS011;33990;44.602;10.976;2023-08-07T10:22:42;0.80;;;0.40;;
48199;SDS011;33990;44.602;10.976;2023-08-07T10:25:11;1.25;;;0.52;;
48199;SDS011;33990;44.602;10.976;2023-08-07T10:27:40;0.82;;;0.30;;
48199;SDS011;33990;44.602;10.976;2023-08-07T10:30:10;1.10;;;0.43;;
48199;SDS011;33990;44.602;10.976;2023-08-07T10:32:41;0.95;;;0.40;;
48199;SDS011;33990;44.602;10.976;2023-08-07T10:35:24;1.33;;;0.38;;
48199;SDS011;33990;44.602;10.976;2023-08-07T10:38:07;2.30;;;0.43;;
48199;SDS011;33990;44.602;10.976;2023-08-07T10:43:26;1.88;;;0.52;;
48199;SDS011;33990;44.602;10.976;2023-08-07T10:46:02;0.75;;;0.45;;
48199;SDS011;33990;44.602;10.976;2023-08-07T10:48:37;1.00;;;0.40;;
48199;SDS011;33990;44.602;10.976;2023-08-07T10:51:06;0.93;;;0.28;;
48199;SDS011;33990;44.602;10.976;2023-08-07T10:53:37;0.88;;;0.30;;
48199;SDS011;33990;44.602;10.976;2023-08-07T10:56:10;1.00;;;0.40;;
48199;SDS011;33990;44.602;10.976;2023-08-07T11:04:14;1.23;;;0.45;;
48199;SDS011;33990;44.602;10.976;2023-08-07T11:06:43;1.75;;;0.60;;
48199;SDS011;33990;44.602;10.976;2023-08-07T11:09:15;1.02;;;0.43;;
48199;SDS011;33990;44.602;10.976;2023-08-07T11:11:46;1.08;;;0.45;;
48199;SDS011;33990;44.602;10.976;2023-08-07T11:14:15;0.65;;;0.25;;
48199;SDS011;33990;44.602;10.976;2023-08-07T11:16:44;1.25;;;0.43;;
48199;SDS011;33990;44.602;10.976;2023-08-07T11:19:13;0.40;;;0.20;;
48199;SDS011;33990;44.602;10.976;2023-08-07T11:21:42;0.98;;;0.40;;
48199;SDS011;33990;44.602;10.976;2023-08-07T11:24:13;0.63;;;0.30;;
48199;SDS011;33990;44.602;10.976;2023-08-07T11:26:44;0.57;;;0.30;;
48199;SDS011;33990;44.602;10.976;2023-08-07T11:29:18;0.70;;;0.32;;
48199;SDS011;33990;44.602;10.976;2023-08-07T11:31:46;1.20;;;0.40;;
48199;SDS011;33990;44.602;10.976;2023-08-07T11:34:14;1.02;;;0.32;;
48199;SDS011;33990;44.602;10.976;2023-08-07T11:36:44;0.60;;;0.20;;
48199;SDS011;33990;44.602;10.976;2023-08-07T11:39:13;1.17;;;0.50;;
48199;SDS011;33990;44.602;10.976;2023-08-07T11:41:41;1.05;;;0.52;;
48199;SDS011;33990;44.602;10.976;2023-08-07T11:44:09;0.90;;;0.30;;
48199;SDS011;33990;44.602;10.976;2023-08-07T11:46:36;0.98;;;0.38;;
48199;SDS011;33990;44.602;10.976;2023-08-07T11:49:04;1.45;;;0.40;;
48199;SDS011;33990;44.602;10.976;2023-08-07T11:51:32;0.52;;;0.22;;
48199;SDS011;33990;44.602;10.976;2023-08-07T11:53:59;1.05;;;0.30;;
48199;SDS011;33990;44.602;10.976;2023-08-07T11:56:27;1.23;;;0.52;;
48199;SDS011;33990;44.602;10.976;2023-08-07T11:58:56;0.50;;;0.20;;
48199;SDS011;33990;44.602;10.976;2023-08-07T12:01:24;0.68;;;0.20;;
48199;SDS011;33990;44.602;10.976;2023-08-07T12:03:56;0.75;;;0.40;;
48199;SDS011;33990;44.602;10.976;2023-08-07T12:06:36;1.20;;;0.40;;
48199;SDS011;33990;44.602;10.976;2023-08-07T12:09:07;0.93;;;0.40;;
48199;SDS011;33990;44.602;10.976;2023-08-07T12:11:40;1.65;;;0.50;;
48199;SDS011;33990;44.602;10.976;2023-08-07T12:14:07;0.70;;;0.30;;
48199;SDS011;33990;44.602;10.976;2023-08-07T12:16:35;0.73;;;0.32;;
48199;SDS011;33990;44.602;10.976;2023-08-07T12:19:03;0.98;;;0.50;;
48199;SDS011;33990;44.602;10.976;2023-08-07T12:21:31;0.82;;;0.30;;
48199;SDS011;33990;44.602;10.976;2023-08-07T12:24:00;0.45;;;0.20;;
48199;SDS011;33990;44.602;10.976;2023-08-07T12:26:27;0.98;;;0.40;;
48199;SDS011;33990;44.602;10.976;2023-08-07T12:28:55;0.90;;;0.35;;
48199;SDS011;33990;44.602;10.976;2023-08-07T12:31:22;1.92;;;0.60;;
48199;SDS011;33990;44.602;10.976;2023-08-07T12:33:50;0.93;;;0.38;;
48199;SDS011;33990;44.602;10.976;2023-08-07T12:36:19;0.70;;;0.38;;
48199;SDS011;33990;44.602;10.976;2023-08-07T12:38:47;1.88;;;0.50;;
48199;SDS011;33990;44.602;10.976;2023-08-07T12:41:15;1.00;;;0.47;;
48199;SDS011;33990;44.602;10.976;2023-08-07T12:43:45;1.10;;;0.63;;
48199;SDS011;33990;44.602;10.976;2023-08-07T12:46:12;0.85;;;0.30;;
48199;SDS011;33990;44.602;10.976;2023-08-07T12:48:42;0.98;;;0.38;;
48199;SDS011;33990;44.602;10.976;2023-08-07T12:51:10;0.43;;;0.22;;
48199;SDS011;33990;44.602;10.976;2023-08-07T12:53:37;0.32;;;0.17;;
48199;SDS011;33990;44.602;10.976;2023-08-07T12:56:05;1.08;;;0.40;;
48199;SDS011;33990;44.602;10.976;2023-08-07T12:58:33;1.08;;;0.40;;
48199;SDS011;33990;44.602;10.976;2023-08-07T13:01:02;1.15;;;0.40;;
48199;SDS011;33990;44.602;10.976;2023-08-07T13:03:29;0.73;;;0.20;;
48199;SDS011;33990;44.602;10.976;2023-08-07T13:05:56;0.60;;;0.25;;
48199;SDS011;33990;44.602;10.976;2023-08-07T13:08:24;0.90;;;0.40;;
48199;SDS011;33990;44.602;10.976;2023-08-07T13:10:51;0.55;;;0.20;;
48199;SDS011;33990;44.602;10.976;2023-08-07T13:13:19;1.20;;;0.30;;
48199;SDS011;33990;44.602;10.976;2023-08-07T13:15:46;1.20;;;0.40;;
48199;SDS011;33990;44.602;10.976;2023-08-07T13:18:14;0.75;;;0.30;;
48199;SDS011;33990;44.602;10.976;2023-08-07T13:20:43;0.82;;;0.30;;
48199;SDS011;33990;44.602;10.976;2023-08-07T13:23:11;0.75;;;0.30;;
48199;SDS011;33990;44.602;10.976;2023-08-07T13:25:38;0.93;;;0.35;;
48199;SDS011;33990;44.602;10.976;2023-08-07T13:28:06;1.48;;;0.52;;
48199;SDS011;33990;44.602;10.976;2023-08-07T13:30:33;0.98;;;0.40;;
48199;SDS011;33990;44.602;10.976;2023-08-07T13:33:04;0.98;;;0.40;;
48199;SDS011;33990;44.602;10.976;2023-08-07T13:35:31;1.02;;;0.40;;
48199;SDS011;33990;44.602;10.976;2023-08-07T13:38:00;0.85;;;0.30;;
48199;SDS011;33990;44.602;10.976;2023-08-07T13:40:32;0.80;;;0.20;;
48199;SDS011;33990;44.602;10.976;2023-08-07T13:43:03;1.10;;;0.40;;
48199;SDS011;33990;44.602;10.976;2023-08-07T13:45:35;0.70;;;0.30;;
48199;SDS011;33990;44.602;10.976;2023-08-07T13:48:03;0.82;;;0.28;;
48199;SDS011;33990;44.602;10.976;2023-08-07T13:50:33;0.65;;;0.30;;
48199;SDS011;33990;44.602;10.976;2023-08-07T13:53:01;0.80;;;0.30;;
48199;SDS011;33990;44.602;10.976;2023-08-07T13:55:40;0.65;;;0.30;;
48199;SDS011;33990;44.602;10.976;2023-08-07T13:58:08;0.90;;;0.38;;
48199;SDS011;33990;44.602;10.976;2023-08-07T14:00:37;0.90;;;0.40;;
48199;SDS011;33990;44.602;10.976;2023-08-07T14:03:05;0.88;;;0.30;;
48199;SDS011;33990;44.602;10.976;2023-08-07T14:05:34;1.00;;;0.47;;
48199;SDS011;33990;44.602;10.976;2023-08-07T14:08:02;1.15;;;0.38;;
48199;SDS011;33990;44.602;10.976;2023-08-07T14:10:29;0.85;;;0.40;;
48199;SDS011;33990;44.602;10.976;2023-08-07T14:12:57;0.82;;;0.38;;
48199;SDS011;33990;44.602;10.976;2023-08-07T14:15:24;1.02;;;0.40;;
48199;SDS011;33990;44.602;10.976;2023-08-07T14:17:52;1.27;;;0.40;;
48199;SDS011;33990;44.602;10.976;2023-08-07T14:20:21;0.98;;;0.30;;
48199;SDS011;33990;44.602;10.976;2023-08-07T14:22:50;0.90;;;0.40;;
48199;SDS011;33990;44.602;10.976;2023-08-07T14:25:18;1.00;;;0.47;;
48199;SDS011;33990;44.602;10.976;2023-08-07T14:27:45;0.60;;;0.20;;
48199;SDS011;33990;44.602;10.976;2023-08-07T14:30:13;0.60;;;0.30;;
48199;SDS011;33990;44.602;10.976;2023-08-07T14:32:40;0.95;;;0.32;;
48199;SDS011;33990;44.602;10.976;2023-08-07T14:35:10;1.30;;;0.57;;
48199;SDS011;33990;44.602;10.976;2023-08-07T14:37:37;1.02;;;0.40;;
48199;SDS011;33990;44.602;10.976;2023-08-07T14:40:04;0.70;;;0.30;;
48199;SDS011;33990;44.602;10.976;2023-08-07T14:42:33;0.50;;;0.15;;
48199;SDS011;33990;44.602;10.976;2023-08-07T14:45:01;0.90;;;0.40;;
48199;SDS011;33990;44.602;10.976;2023-08-07T14:47:28;0.88;;;0.30;;
48199;SDS011;33990;44.602;10.976;2023-08-07T14:49:56;1.00;;;0.32;;
48199;SDS011;33990;44.602;10.976;2023-08-07T14:52:23;0.60;;;0.20;;